Time;durP1;ratioP1;P1;durP2;ratioP2;P2;SDS_P1;SDS_P2;PMS_P1;PMS_P2;Temp;Humidity;BMP_temperature;BMP_pressure;BME280_temperature;BME280_humidity;BME280_pressure;Samples;Min_cycle;Max_cycle;Signal;HPM_P1;HPM_P2
2023/03/26 00:01:06;;;;;;;4.70;2.03;;;9.10;99.90;;;;;;4964060;28;20171;-78
2023/03/26 00:03:33;;;;;;;1.97;1.63;;;9.10;99.90;;;;;;4964555;28;20711;-76
2023/03/26 00:06:08;;;;;;;4.40;1.80;;;9.00;99.90;;;;;;4967982;28;20210;-75
2023/03/26 00:08:35;;;;;;;7.40;2.77;;;9.00;99.90;;;;;;4980624;28;20571;-74
2023/03/26 00:11:03;;;;;;;3.30;2.10;;;9.10;99.90;;;;;;4967177;28;20313;-75
2023/03/26 00:13:29;;;;;;;4.37;2.10;;;9.00;99.90;;;;;;4977315;28;20195;-73
2023/03/26 00:15:55;;;;;;;3.67;1.77;;;9.10;99.90;;;;;;4960326;28;20182;-76
2023/03/26 00:18:23;;;;;;;3.57;1.80;;;9.20;99.90;;;;;;4976277;28;20228;-77
2023/03/26 00:20:50;;;;;;;7.10;1.80;;;9.20;99.90;;;;;;4978774;28;20205;-77
2023/03/26 00:23:16;;;;;;;2.47;1.87;;;9.10;99.90;;;;;;4976861;28;20238;-76
2023/03/26 00:25:42;;;;;;;5.90;2.00;;;9.10;99.90;;;;;;4975513;28;20280;-75
2023/03/26 00:28:08;;;;;;;5.23;1.90;;;9.10;99.90;;;;;;4973756;28;20179;-78
2023/03/26 00:30:40;;;;;;;6.53;2.00;;;9.10;99.90;;;;;;4981297;28;20594;-75
2023/03/26 00:33:06;;;;;;;2.67;1.40;;;9.10;99.90;;;;;;4969402;28;20906;-77
2023/03/26 00:35:35;;;;;;;3.47;1.30;;;9.10;99.90;;;;;;4968804;28;20213;-76
2023/03/26 00:38:01;;;;;;;3.30;1.60;;;9.10;99.90;;;;;;4966140;28;20265;-75
2023/03/26 00:40:28;;;;;;;2.43;1.53;;;9.20;99.90;;;;;;4974227;28;20286;-78
2023/03/26 00:42:54;;;;;;;3.70;1.40;;;9.20;99.90;;;;;;4969905;28;20202;-79
2023/03/26 00:45:21;;;;;;;6.83;1.50;;;9.20;99.90;;;;;;4979180;28;20673;-76
2023/03/26 00:47:47;;;;;;;3.93;1.67;;;9.10;99.90;;;;;;4968731;28;20868;-75
2023/03/26 00:50:15;;;;;;;2.87;1.50;;;9.10;99.90;;;;;;4968307;28;20297;-74
2023/03/26 00:52:45;;;;;;;3.47;1.30;;;9.10;99.90;;;;;;4981856;28;20758;-78
2023/03/26 00:55:11;;;;;;;2.93;1.23;;;9.20;99.90;;;;;;4968072;28;20198;-80
2023/03/26 00:57:39;;;;;;;6.33;1.63;;;9.20;99.90;;;;;;5007781;28;20216;-80
2023/03/26 01:00:09;;;;;;;3.77;1.33;;;9.10;99.90;;;;;;4982421;28;20249;-77
2023/03/26 01:02:34;;;;;;;4.53;1.53;;;9.10;99.90;;;;;;4975998;28;20213;-79
2023/03/26 01:05:20;;;;;;;2.50;0.97;;;9.00;99.90;;;;;;4968836;28;20203;-78
2023/03/26 01:07:46;;;;;;;1.80;1.10;;;9.10;99.90;;;;;;4974521;28;20632;-80
2023/03/26 01:10:13;;;;;;;2.57;1.70;;;9.10;99.90;;;;;;4984908;28;20186;-79
2023/03/26 01:12:39;;;;;;;4.93;1.53;;;9.10;99.90;;;;;;4996225;28;20265;-79
2023/03/26 01:15:07;;;;;;;5.73;1.50;;;9.00;99.90;;;;;;4977033;28;20233;-79
2023/03/26 01:17:36;;;;;;;2.10;1.40;;;9.00;99.90;;;;;;4979300;28;20221;-79
2023/03/26 01:20:12;;;;;;;3.83;1.50;;;9.00;99.90;;;;;;4973387;28;20213;-80
2023/03/26 01:22:41;;;;;;;4.30;2.33;;;9.00;99.90;;;;;;4974720;28;20239;-76
2023/03/26 01:25:08;;;;;;;4.93;1.47;;;8.90;99.90;;;;;;4965531;28;20180;-76
2023/03/26 01:27:49;;;;;;;3.17;1.87;;;8.90;99.90;;;;;;4965641;28;20218;-72
2023/03/26 01:30:48;;;;;;;4.53;1.50;;;8.90;99.90;;;;;;4964002;28;20233;-78
2023/03/26 01:33:36;;;;;;;4.17;1.33;;;8.80;99.90;;;;;;4970214;28;20254;-80
2023/03/26 01:36:12;;;;;;;6.27;1.47;;;8.70;99.90;;;;;;4973644;28;20612;-78
2023/03/26 01:39:08;;;;;;;3.07;1.43;;;8.80;99.90;;;;;;4981278;28;20789;-79
2023/03/26 01:41:45;;;;;;;4.87;1.80;;;8.70;99.90;;;;;;4973288;28;20214;-80
2023/03/26 01:44:17;;;;;;;3.50;1.30;;;8.60;99.90;;;;;;4970629;28;20213;-80
2023/03/26 01:46:44;;;;;;;2.93;1.20;;;8.70;99.90;;;;;;4973812;28;20219;-79
2023/03/26 01:49:11;;;;;;;2.80;1.00;;;8.60;99.90;;;;;;4975802;28;20174;-76
2023/03/26 01:51:40;;;;;;;2.10;0.87;;;8.60;99.90;;;;;;4970395;28;20585;-75
2023/03/26 01:54:10;;;;;;;3.67;1.80;;;8.60;99.90;;;;;;4972765;28;20527;-75
2023/03/26 01:57:00;;;;;;;1.17;0.80;;;8.70;99.90;;;;;;4974348;28;20277;-75
2023/03/26 01:59:50;;;;;;;2.97;0.90;;;8.80;99.90;;;;;;4972301;28;20671;-74
2023/03/26 02:02:30;;;;;;;2.43;0.73;;;8.80;99.90;;;;;;4973336;28;20205;-72
2023/03/26 02:05:09;;;;;;;1.33;0.73;;;8.70;99.90;;;;;;4971062;28;20272;-74
2023/03/26 02:07:46;;;;;;;0.80;0.73;;;8.60;99.90;;;;;;4964208;28;20205;-71
2023/03/26 02:10:27;;;;;;;1.23;0.63;;;8.60;99.90;;;;;;4988767;28;20339;-71
2023/03/26 02:12:53;;;;;;;1.40;0.87;;;8.60;99.90;;;;;;4969564;28;20612;-73
2023/03/26 02:15:20;;;;;;;2.60;1.67;;;8.50;99.90;;;;;;4972820;28;20214;-73
2023/03/26 02:17:45;;;;;;;2.90;1.23;;;8.50;99.90;;;;;;4972513;28;20260;-72
2023/03/26 02:20:13;;;;;;;2.20;1.03;;;8.60;99.90;;;;;;4971972;28;20210;-73
2023/03/26 02:22:40;;;;;;;3.00;0.90;;;8.50;99.90;;;;;;4973470;28;20178;-72
2023/03/26 02:25:10;;;;;;;3.13;1.13;;;8.50;99.90;;;;;;4971313;28;20179;-71
2023/03/26 02:27:37;;;;;;;3.77;1.33;;;8.50;99.90;;;;;;4970498;28;20222;-72
2023/03/26 02:30:09;;;;;;;2.80;1.20;;;8.50;99.90;;;;;;4971635;28;20217;-73
2023/03/26 02:32:35;;;;;;;3.40;1.17;;;8.50;99.90;;;;;;4974126;28;20708;-70
2023/03/26 02:35:01;;;;;;;1.97;1.10;;;8.40;99.90;;;;;;4966944;28;20221;-72
2023/03/26 02:37:29;;;;;;;2.47;1.23;;;8.30;99.90;;;;;;4972096;28;20183;-72
2023/03/26 02:39:55;;;;;;;2.50;1.40;;;8.30;99.90;;;;;;4962337;28;20219;-72
2023/03/26 02:42:20;;;;;;;2.93;1.53;;;8.30;99.90;;;;;;4974938;28;20210;-71
2023/03/26 02:44:46;;;;;;;4.73;1.33;;;8.20;99.90;;;;;;4957019;28;20202;-72
2023/03/26 02:47:11;;;;;;;3.27;1.23;;;8.20;99.90;;;;;;4963229;28;20249;-73
2023/03/26 02:49:37;;;;;;;3.87;1.60;;;8.20;99.90;;;;;;4964359;28;20194;-73
2023/03/26 02:52:05;;;;;;;3.33;1.40;;;8.10;99.90;;;;;;4969513;28;20174;-73
2023/03/26 02:54:33;;;;;;;3.83;2.03;;;8.20;99.90;;;;;;4971291;28;20241;-71
2023/03/26 02:56:58;;;;;;;6.83;2.60;;;8.20;99.90;;;;;;4964895;28;20743;-73
2023/03/26 02:59:24;;;;;;;3.20;1.50;;;8.20;99.90;;;;;;4958426;28;20244;-73
2023/03/26 03:01:50;;;;;;;4.97;3.00;;;8.20;99.90;;;;;;4959190;28;20268;-74
2023/03/26 03:04:16;;;;;;;5.30;3.23;;;8.30;99.90;;;;;;4955299;28;20674;-73
2023/03/26 03:06:43;;;;;;;5.67;2.23;;;8.30;99.90;;;;;;4957111;28;20210;-73
2023/03/26 03:09:10;;;;;;;5.90;2.40;;;8.30;99.90;;;;;;4957479;28;20211;-73
2023/03/26 03:11:37;;;;;;;6.33;2.93;;;8.30;99.90;;;;;;4985368;28;20211;-73
2023/03/26 03:14:03;;;;;;;2.70;1.50;;;8.40;99.90;;;;;;4951324;28;20236;-74
2023/03/26 03:16:29;;;;;;;3.87;1.50;;;8.40;99.90;;;;;;4948974;28;20188;-71
2023/03/26 03:18:55;;;;;;;3.87;2.00;;;8.30;99.90;;;;;;4946321;28;20221;-74
2023/03/26 03:21:28;;;;;;;5.43;1.80;;;8.40;99.90;;;;;;4945439;28;20254;-73
2023/03/26 03:23:57;;;;;;;4.57;1.77;;;8.40;99.90;;;;;;4980950;28;20549;-74
2023/03/26 03:26:26;;;;;;;2.10;1.90;;;8.40;99.90;;;;;;4961015;28;20277;-74
2023/03/26 03:28:53;;;;;;;4.60;1.87;;;8.40;99.90;;;;;;4964607;28;20289;-74
2023/03/26 03:31:18;;;;;;;8.13;2.30;;;8.50;99.90;;;;;;4967584;28;20171;-74
2023/03/26 03:33:45;;;;;;;7.40;3.30;;;8.50;99.90;;;;;;4970667;28;20225;-74
2023/03/26 03:36:12;;;;;;;4.77;1.63;;;8.50;99.90;;;;;;4964842;28;20203;-74
2023/03/26 03:38:40;;;;;;;3.63;2.10;;;8.50;99.90;;;;;;4960051;28;20215;-74
2023/03/26 03:41:06;;;;;;;3.37;2.17;;;8.50;99.90;;;;;;4995546;23;20319;-79
2023/03/26 03:43:32;;;;;;;4.60;1.77;;;8.50;99.90;;;;;;4998549;28;20189;-79
2023/03/26 03:45:59;;;;;;;5.20;2.20;;;8.60;99.90;;;;;;4998725;28;20568;-79
2023/03/26 03:48:27;;;;;;;3.23;1.70;;;8.60;99.90;;;;;;5001599;28;20288;-78
2023/03/26 03:50:54;;;;;;;2.57;1.70;;;8.50;99.90;;;;;;5007371;28;20252;-78
2023/03/26 03:53:21;;;;;;;3.87;2.00;;;8.50;99.90;;;;;;4990296;28;20217;-79
2023/03/26 03:55:52;;;;;;;4.20;2.20;;;8.50;99.90;;;;;;4989263;28;20264;-78
2023/03/26 03:58:23;;;;;;;5.00;2.00;;;8.40;99.90;;;;;;4974479;28;20625;-78
2023/03/26 04:00:49;;;;;;;5.30;2.20;;;8.40;99.90;;;;;;4969795;28;20418;-78
2023/03/26 04:03:16;;;;;;;2.80;2.03;;;8.50;99.90;;;;;;4970762;28;20780;-77
2023/03/26 04:05:48;;;;;;;6.03;1.93;;;8.40;99.90;;;;;;4971394;28;20217;-78
2023/03/26 04:08:15;;;;;;;5.53;1.60;;;8.40;99.90;;;;;;4968412;28;20634;-77
2023/03/26 04:10:42;;;;;;;5.37;2.07;;;8.50;99.90;;;;;;4972045;28;20735;-76
2023/03/26 04:13:08;;;;;;;3.10;1.63;;;8.50;99.90;;;;;;4972090;28;20175;-79
2023/03/26 04:15:34;;;;;;;6.67;2.07;;;8.50;99.90;;;;;;4978037;28;20206;-79
2023/03/26 04:18:00;;;;;;;4.20;1.90;;;8.50;99.90;;;;;;4987394;28;20546;-79
2023/03/26 04:20:26;;;;;;;4.77;2.60;;;8.50;99.90;;;;;;4985931;28;20309;-78
2023/03/26 04:22:52;;;;;;;5.87;1.83;;;8.50;99.90;;;;;;4979488;28;20251;-78
2023/03/26 04:25:18;;;;;;;6.27;2.00;;;8.50;99.90;;;;;;4990865;28;20166;-78
2023/03/26 04:27:44;;;;;;;2.67;1.57;;;8.50;99.90;;;;;;4979936;28;20305;-79
2023/03/26 04:30:14;;;;;;;4.60;1.73;;;8.50;99.90;;;;;;4980882;28;20799;-79
2023/03/26 04:32:41;;;;;;;2.60;1.67;;;8.50;99.90;;;;;;4975005;28;20260;-79
2023/03/26 04:35:10;;;;;;;5.33;1.90;;;8.50;99.90;;;;;;4978327;28;20210;-79
2023/03/26 04:37:39;;;;;;;2.67;1.47;;;8.50;99.90;;;;;;4991860;28;20188;-78
2023/03/26 04:40:10;;;;;;;2.73;1.50;;;8.40;99.90;;;;;;4972656;28;20217;-78
2023/03/26 04:42:40;;;;;;;2.77;1.57;;;8.40;99.90;;;;;;4971940;28;20208;-79
2023/03/26 04:45:06;;;;;;;4.63;1.73;;;8.30;99.90;;;;;;4985040;28;20203;-79
2023/03/26 04:47:35;;;;;;;3.90;1.50;;;8.30;99.90;;;;;;4991220;28;20588;-79
2023/03/26 04:50:06;;;;;;;4.53;1.80;;;8.30;99.90;;;;;;4977587;28;20634;-79
2023/03/26 04:52:32;;;;;;;3.73;1.87;;;8.30;99.90;;;;;;4975998;28;20182;-79
2023/03/26 04:54:58;;;;;;;2.83;1.30;;;8.20;99.90;;;;;;5003130;28;20177;-79
2023/03/26 04:57:36;;;;;;;3.83;1.50;;;8.20;99.90;;;;;;4981316;28;20320;-78
2023/03/26 05:00:10;;;;;;;3.47;1.10;;;8.20;99.90;;;;;;4987805;28;20209;-78
2023/03/26 05:02:38;;;;;;;5.83;1.50;;;8.20;99.90;;;;;;5008444;28;20213;-77
2023/03/26 05:05:04;;;;;;;3.73;1.37;;;8.20;99.90;;;;;;4971622;28;20249;-78
2023/03/26 05:07:30;;;;;;;3.47;1.30;;;8.30;99.90;;;;;;4972899;28;20206;-77
2023/03/26 05:09:56;;;;;;;3.73;1.27;;;8.30;99.90;;;;;;4972987;28;20252;-78
2023/03/26 05:12:22;;;;;;;3.63;1.47;;;8.30;99.90;;;;;;4971127;28;20214;-78
2023/03/26 05:14:47;;;;;;;5.70;1.60;;;8.30;99.90;;;;;;4972593;28;20210;-79
2023/03/26 05:17:17;;;;;;;3.07;1.50;;;8.30;99.90;;;;;;4975696;28;20733;-77
2023/03/26 05:19:43;;;;;;;6.23;1.80;;;8.30;99.90;;;;;;4990959;28;20251;-78
2023/03/26 05:22:09;;;;;;;4.50;1.67;;;8.30;99.90;;;;;;4994421;28;20534;-78
2023/03/26 05:24:34;;;;;;;3.70;1.77;;;8.30;99.90;;;;;;4991517;28;20209;-77
2023/03/26 05:27:00;;;;;;;5.23;1.60;;;8.40;99.90;;;;;;4995818;28;20308;-78
2023/03/26 05:29:26;;;;;;;3.00;1.63;;;8.40;99.90;;;;;;4993955;28;20212;-78
2023/03/26 05:31:51;;;;;;;3.93;1.63;;;8.40;99.90;;;;;;4997171;28;20303;-78
2023/03/26 05:34:19;;;;;;;3.67;1.80;;;8.40;99.90;;;;;;4995577;28;20166;-79
2023/03/26 05:36:45;;;;;;;4.53;1.47;;;8.50;99.90;;;;;;4993223;28;20695;-78
2023/03/26 05:39:13;;;;;;;3.73;1.70;;;8.50;99.90;;;;;;4995829;28;20194;-79
2023/03/26 05:41:38;;;;;;;4.27;1.60;;;8.50;99.90;;;;;;4993723;28;20217;-76
2023/03/26 05:44:04;;;;;;;3.17;1.40;;;8.50;99.90;;;;;;4994167;28;20198;-77
2023/03/26 05:46:30;;;;;;;5.03;1.77;;;8.50;99.90;;;;;;4990391;28;20280;-77
2023/03/26 05:48:56;;;;;;;3.53;1.47;;;8.50;99.90;;;;;;4994112;28;21015;-77
2023/03/26 05:51:22;;;;;;;3.47;1.47;;;8.60;99.90;;;;;;4992822;28;20253;-77
2023/03/26 05:53:48;;;;;;;5.27;1.47;;;8.60;99.90;;;;;;4991485;28;20201;-76
2023/03/26 05:56:13;;;;;;;2.53;1.73;;;8.60;99.90;;;;;;4991289;28;20213;-76
2023/03/26 05:58:40;;;;;;;3.87;1.60;;;8.60;99.90;;;;;;5000475;28;20173;-76
2023/03/26 06:01:15;;;;;;;5.17;1.97;;;8.50;99.90;;;;;;4991066;28;20193;-77
2023/03/26 06:03:46;;;;;;;3.20;1.67;;;8.50;99.90;;;;;;4999207;28;20213;-76
2023/03/26 06:06:16;;;;;;;4.03;1.93;;;8.60;99.90;;;;;;4999229;28;20205;-77
2023/03/26 06:08:50;;;;;;;4.60;1.50;;;8.70;99.90;;;;;;5008703;28;20288;-77
2023/03/26 06:11:18;;;;;;;4.03;1.70;;;8.70;99.90;;;;;;4998599;28;20202;-77
2023/03/26 06:13:44;;;;;;;4.73;1.53;;;8.80;99.90;;;;;;4995271;28;20212;-77
2023/03/26 06:16:12;;;;;;;3.97;1.60;;;9.00;99.90;;;;;;4997585;28;20663;-77
2023/03/26 06:18:38;;;;;;;3.80;1.83;;;8.90;99.90;;;;;;4996830;28;20577;-78
2023/03/26 06:21:05;;;;;;;5.27;2.13;;;8.80;99.90;;;;;;4998946;28;20215;-77
2023/03/26 06:23:31;;;;;;;3.37;1.57;;;8.80;99.90;;;;;;4994151;28;20224;-75
2023/03/26 06:25:57;;;;;;;4.13;1.80;;;8.80;99.90;;;;;;4996687;28;20305;-77
2023/03/26 06:28:23;;;;;;;2.70;1.60;;;8.70;99.90;;;;;;4996849;28;20314;-76
2023/03/26 06:30:50;;;;;;;4.97;1.90;;;8.70;99.90;;;;;;4995251;28;20206;-77
2023/03/26 06:33:15;;;;;;;3.47;1.60;;;8.70;99.90;;;;;;4993493;28;20224;-77
2023/03/26 06:35:42;;;;;;;5.13;1.80;;;8.60;99.90;;;;;;5004420;28;20197;-77
2023/03/26 06:38:09;;;;;;;5.53;1.87;;;8.60;99.90;;;;;;4992105;28;20193;-77
2023/03/26 06:40:35;;;;;;;3.93;2.00;;;8.60;99.90;;;;;;4992818;28;20209;-76
2023/03/26 06:43:01;;;;;;;6.67;2.27;;;8.50;99.90;;;;;;5000020;28;20674;-78
2023/03/26 06:45:27;;;;;;;4.50;2.03;;;8.50;99.90;;;;;;5007510;28;20209;-78
2023/03/26 06:47:53;;;;;;;3.93;2.07;;;8.50;99.90;;;;;;4998935;28;20315;-77
2023/03/26 06:50:19;;;;;;;7.87;2.00;;;8.60;99.90;;;;;;4989290;28;20309;-78
2023/03/26 06:52:45;;;;;;;5.20;1.87;;;8.80;99.90;;;;;;4976833;28;20202;-78
2023/03/26 06:55:10;;;;;;;5.00;1.60;;;9.00;99.90;;;;;;4975053;28;20264;-78
2023/03/26 06:57:36;;;;;;;3.00;1.30;;;9.30;99.90;;;;;;4975632;28;20304;-77
2023/03/26 07:00:04;;;;;;;5.57;1.63;;;9.70;99.90;;;;;;4976464;28;20304;-78
2023/03/26 07:02:30;;;;;;;4.00;1.87;;;10.00;99.90;;;;;;4973216;28;20634;-78
2023/03/26 07:04:56;;;;;;;3.43;1.60;;;10.30;99.90;;;;;;4974223;28;20353;-78
2023/03/26 07:07:23;;;;;;;3.07;1.40;;;10.80;99.90;;;;;;4975765;28;20285;-78
2023/03/26 07:09:49;;;;;;;2.03;1.17;;;11.20;99.90;;;;;;4972615;28;20218;-78
2023/03/26 07:12:15;;;;;;;4.47;1.50;;;11.20;99.90;;;;;;4969261;28;20301;-78
2023/03/26 07:14:41;;;;;;;3.93;1.33;;;10.90;99.90;;;;;;4971439;28;20256;-77
2023/03/26 07:17:07;;;;;;;7.17;1.70;;;10.70;99.90;;;;;;4977542;28;20272;-77
2023/03/26 07:19:32;;;;;;;5.40;1.50;;;10.50;99.90;;;;;;4991666;28;20212;-77
2023/03/26 07:21:58;;;;;;;6.57;1.87;;;10.70;99.90;;;;;;4990710;28;20547;-78
2023/03/26 07:24:25;;;;;;;5.43;2.30;;;10.60;99.90;;;;;;4989918;28;20209;-77
2023/03/26 07:27:03;;;;;;;5.97;2.90;;;10.70;99.90;;;;;;4995062;28;20209;-78
2023/03/26 07:29:56;;;;;;;2.60;1.40;;;10.80;99.90;;;;;;4993979;28;20221;-78
2023/03/26 07:32:30;;;;;;;1.93;1.10;;;10.60;99.90;;;;;;4989654;28;20692;-78
2023/03/26 07:35:17;;;;;;;4.07;1.20;;;10.30;99.90;;;;;;5013345;28;20204;-78
2023/03/26 07:38:20;;;;;;;3.53;1.80;;;10.20;99.90;;;;;;4989143;28;20201;-78
2023/03/26 07:41:03;;;;;;;3.47;1.30;;;10.10;99.90;;;;;;4992203;28;20243;-78
2023/03/26 07:43:50;;;;;;;4.43;1.20;;;10.10;99.90;;;;;;4989898;28;20193;-79
2023/03/26 07:46:18;;;;;;;2.87;1.10;;;10.00;99.90;;;;;;4988626;28;20201;-78
2023/03/26 07:48:48;;;;;;;2.97;1.10;;;9.90;99.90;;;;;;5010394;28;20213;-78
2023/03/26 07:51:14;;;;;;;3.50;1.40;;;9.80;99.90;;;;;;5008198;28;20580;-78
2023/03/26 07:53:40;;;;;;;3.13;1.50;;;9.70;99.90;;;;;;4987618;28;20208;-77
2023/03/26 07:56:21;;;;;;;5.57;1.90;;;9.80;99.90;;;;;;5006346;28;20221;-78
2023/03/26 07:58:50;;;;;;;4.40;1.30;;;9.70;99.90;;;;;;4989810;28;20356;-78
2023/03/26 08:01:23;;;;;;;4.33;1.60;;;9.60;99.90;;;;;;4985621;28;20214;-77
2023/03/26 08:04:21;;;;;;;4.10;1.63;;;9.70;99.90;;;;;;4990393;28;20210;-78
2023/03/26 08:07:16;;;;;;;3.67;1.37;;;9.90;99.90;;;;;;4978901;28;20271;-79
2023/03/26 08:10:01;;;;;;;7.83;2.03;;;9.80;99.90;;;;;;4993345;28;20229;-78
2023/03/26 08:12:35;;;;;;;5.37;1.43;;;9.70;99.90;;;;;;5007395;28;20235;-78
2023/03/26 08:15:24;;;;;;;3.67;1.30;;;9.60;99.90;;;;;;4995076;28;20204;-78
2023/03/26 08:18:15;;;;;;;4.17;1.60;;;9.70;99.90;;;;;;4993748;28;20209;-77
2023/03/26 08:20:53;;;;;;;8.13;1.93;;;9.60;99.90;;;;;;5005842;28;20971;-78
2023/03/26 08:23:39;;;;;;;6.10;1.47;;;9.60;99.90;;;;;;5008118;28;20225;-78
2023/03/26 08:26:12;;;;;;;5.53;1.90;;;9.70;99.90;;;;;;4991073;28;20291;-77
2023/03/26 08:28:47;;;;;;;4.40;1.67;;;9.70;99.90;;;;;;4991214;28;20208;-77
2023/03/26 08:31:14;;;;;;;6.67;1.87;;;9.80;99.90;;;;;;4990976;28;20422;-77
2023/03/26 08:33:40;;;;;;;8.33;2.03;;;9.90;99.90;;;;;;4989362;28;20324;-77
2023/03/26 08:36:08;;;;;;;3.70;1.40;;;9.80;99.90;;;;;;4992388;28;20864;-78
2023/03/26 08:38:33;;;;;;;4.60;1.40;;;9.80;99.90;;;;;;4995114;28;20213;-78
2023/03/26 08:41:35;;;;;;;5.67;1.63;;;9.90;99.90;;;;;;5006996;28;20295;-77
2023/03/26 08:44:03;;;;;;;4.60;1.47;;;9.90;99.90;;;;;;5011361;28;20230;-78
2023/03/26 08:46:47;;;;;;;3.17;1.77;;;10.10;99.90;;;;;;4991988;28;20212;-79
2023/03/26 08:49:37;;;;;;;3.10;1.30;;;10.20;99.90;;;;;;4989802;28;20201;-79
2023/03/26 08:52:06;;;;;;;5.10;1.47;;;10.20;99.90;;;;;;4994772;28;20560;-78
2023/03/26 08:54:40;;;;;;;7.63;2.20;;;10.30;99.90;;;;;;4991950;28;20228;-78
2023/03/26 08:57:12;;;;;;;5.20;1.93;;;10.30;99.90;;;;;;4989598;28;20216;-77
2023/03/26 08:59:43;;;;;;;6.83;2.07;;;10.50;99.90;;;;;;4993692;28;20209;-78
2023/03/26 09:02:24;;;;;;;4.43;1.33;;;10.50;99.90;;;;;;4991717;28;20740;-78
2023/03/26 09:05:28;;;;;;;6.20;1.53;;;10.60;99.90;;;;;;5006678;28;20216;-78
2023/03/26 09:08:14;;;;;;;6.00;2.00;;;10.70;99.90;;;;;;4991644;28;20304;-79
2023/03/26 09:10:46;;;;;;;3.80;1.90;;;10.90;99.90;;;;;;4987484;28;20213;-79
2023/03/26 09:13:34;;;;;;;2.50;1.57;;;10.90;99.90;;;;;;4989808;28;20234;-78
2023/03/26 09:16:21;;;;;;;5.40;1.90;;;10.90;99.90;;;;;;5007094;28;20221;-79
2023/03/26 09:19:08;;;;;;;3.13;1.70;;;10.70;99.90;;;;;;5011830;28;20228;-78
2023/03/26 09:22:01;;;;;;;5.33;1.97;;;10.50;99.90;;;;;;4992448;28;20256;-74
2023/03/26 09:24:34;;;;;;;4.90;1.97;;;10.50;99.90;;;;;;4983530;28;20257;-76
2023/03/26 09:27:18;;;;;;;4.60;1.77;;;10.70;99.90;;;;;;5001130;28;20229;-78
2023/03/26 09:30:20;;;;;;;3.70;1.50;;;10.80;99.90;;;;;;4978249;28;20220;-76
2023/03/26 09:33:05;;;;;;;7.33;1.70;;;10.80;99.90;;;;;;4969542;28;20202;-80
2023/03/26 09:35:54;;;;;;;4.63;1.47;;;10.70;99.90;;;;;;4977677;28;20707;-79
2023/03/26 09:38:46;;;;;;;5.03;1.70;;;10.50;99.90;;;;;;4995347;28;20233;-79
2023/03/26 09:41:26;;;;;;;5.27;1.80;;;10.30;99.90;;;;;;4976537;28;20304;-78
2023/03/26 09:44:24;;;;;;;4.77;1.40;;;10.20;99.90;;;;;;4981355;28;20213;-79
2023/03/26 09:47:43;;;;;;;2.60;1.30;;;10.10;99.90;;;;;;4990470;23;20304;-75
2023/03/26 09:50:43;;;;;;;5.17;1.67;;;10.10;99.90;;;;;;4969180;28;20269;-75
2023/03/26 09:53:40;;;;;;;4.70;1.53;;;10.10;99.90;;;;;;4991371;28;20565;-74
2023/03/26 09:56:15;;;;;;;4.90;1.43;;;10.00;99.90;;;;;;4986996;28;20213;-75
2023/03/26 09:59:04;;;;;;;4.23;1.77;;;10.00;99.90;;;;;;4977018;28;20179;-74
2023/03/26 10:02:03;;;;;;;4.30;1.57;;;10.10;99.90;;;;;;4958946;28;20241;-74
2023/03/26 10:04:39;;;;;;;5.87;2.30;;;10.10;99.90;;;;;;4972980;28;20175;-75
2023/03/26 10:07:47;;;;;;;3.27;1.97;;;10.20;99.90;;;;;;4968685;28;20217;-74
2023/03/26 10:10:15;;;;;;;4.07;1.63;;;10.20;99.90;;;;;;4970377;28;20202;-74
2023/03/26 10:12:44;;;;;;;4.53;1.70;;;10.50;99.90;;;;;;4971497;28;20297;-74
2023/03/26 10:15:33;;;;;;;2.70;1.50;;;10.50;99.90;;;;;;4971869;28;20579;-74
2023/03/26 10:18:10;;;;;;;4.30;1.90;;;10.70;99.90;;;;;;4971569;28;20234;-74
2023/03/26 10:21:00;;;;;;;4.70;1.63;;;10.70;99.90;;;;;;4973300;28;20213;-74
2023/03/26 10:24:03;;;;;;;4.43;1.90;;;10.50;99.90;;;;;;4985444;28;20684;-75
2023/03/26 10:26:52;;;;;;;8.97;2.37;;;10.50;99.90;;;;;;4969645;28;20221;-75
2023/03/26 10:29:55;;;;;;;5.85;2.40;;;10.50;99.90;;;;;;4967385;28;20945;-73
2023/03/26 10:32:44;;;;;;;5.73;2.30;;;10.30;99.90;;;;;;4970001;28;20210;-74
2023/03/26 10:35:51;;;;;;;4.67;2.40;;;10.20;99.90;;;;;;4975291;28;20205;-75
2023/03/26 10:38:23;;;;;;;5.03;1.53;;;10.30;99.90;;;;;;4968911;28;20198;-74
2023/03/26 10:40:58;;;;;;;4.47;1.90;;;10.30;99.90;;;;;;4972605;28;20318;-74
2023/03/26 10:44:16;;;;;;;5.50;1.70;;;10.40;99.90;;;;;;4970332;28;20174;-78
2023/03/26 10:47:03;;;;;;;4.40;1.90;;;10.40;99.90;;;;;;4960548;28;20210;-75
2023/03/26 10:49:50;;;;;;;9.97;3.10;;;10.50;99.90;;;;;;4969983;28;20558;-72
2023/03/26 10:52:26;;;;;;;7.10;1.90;;;10.80;99.90;;;;;;4972600;28;20174;-75
2023/03/26 10:55:18;;;;;;;4.03;1.80;;;10.90;99.90;;;;;;4975860;28;20201;-75
2023/03/26 10:57:49;;;;;;;5.10;2.53;;;10.90;99.90;;;;;;4971912;28;20289;-74
2023/03/26 11:00:17;;;;;;;7.40;2.63;;;11.10;99.90;;;;;;4973135;28;20256;-74
2023/03/26 11:02:54;;;;;;;5.33;2.20;;;11.20;99.90;;;;;;4973976;28;20210;-75
2023/03/26 11:05:33;;;;;;;6.93;2.13;;;11.30;99.90;;;;;;4972190;28;20206;-75
2023/03/26 11:08:19;;;;;;;7.10;2.40;;;11.40;99.90;;;;;;4972510;28;20221;-74
2023/03/26 11:10:50;;;;;;;8.40;3.25;;;11.50;99.90;;;;;;4970151;28;20480;-75
2023/03/26 11:13:31;;;;;;;8.63;3.10;;;11.70;99.90;;;;;;4970030;28;20174;-74
2023/03/26 11:16:11;;;;;;;4.13;2.22;;;11.90;99.90;;;;;;4971770;28;20210;-74
2023/03/26 11:19:01;;;;;;;9.05;3.33;;;12.10;99.90;;;;;;4969764;28;20206;-76
2023/03/26 11:21:35;;;;;;;12.57;3.08;;;12.20;99.90;;;;;;4971380;28;20210;-75
2023/03/26 11:24:23;;;;;;;7.13;2.88;;;12.20;99.90;;;;;;4978450;28;20221;-74
2023/03/26 11:26:55;;;;;;;6.00;2.33;;;12.50;99.90;;;;;;4970688;28;20294;-71
2023/03/26 11:29:27;;;;;;;7.43;2.17;;;12.70;99.90;;;;;;4972526;28;20273;-75
2023/03/26 11:32:16;;;;;;;7.07;2.42;;;12.80;99.90;;;;;;4972453;28;20204;-74
2023/03/26 11:34:51;;;;;;;6.80;2.45;;;12.60;99.90;;;;;;4969887;28;20174;-75
2023/03/26 11:37:32;;;;;;;5.43;2.42;;;12.30;99.90;;;;;;4971471;28;20316;-74
2023/03/26 11:40:00;;;;;;;6.35;1.88;;;12.30;99.90;;;;;;4970109;28;20798;-74
2023/03/26 11:42:28;;;;;;;11.32;4.78;;;12.20;99.90;;;;;;4970687;28;20888;-72
2023/03/26 11:45:04;;;;;;;7.05;2.88;;;12.30;99.90;;;;;;4971429;28;20260;-73
2023/03/26 11:48:01;;;;;;;4.82;2.40;;;12.30;99.90;;;;;;4969035;28;20325;-73
2023/03/26 11:50:31;;;;;;;5.22;2.80;;;12.30;99.90;;;;;;4971590;28;20827;-73
2023/03/26 11:53:01;;;;;;;5.73;2.27;;;12.40;99.90;;;;;;4970505;28;20346;-75
2023/03/26 11:55:29;;;;;;;8.13;2.72;;;12.50;99.90;;;;;;4969585;28;20199;-75
2023/03/26 11:57:58;;;;;;;6.28;2.70;;;12.50;99.90;;;;;;4970511;28;20524;-74
2023/03/26 12:00:27;;;;;;;9.32;2.78;;;12.70;99.90;;;;;;4971748;28;20202;-75
2023/03/26 12:02:57;;;;;;;7.85;2.63;;;12.70;99.90;;;;;;4971301;28;20569;-75
2023/03/26 12:05:26;;;;;;;7.00;2.40;;;12.50;99.90;;;;;;4968887;28;20306;-74
2023/03/26 12:08:00;;;;;;;5.32;2.67;;;12.50;99.90;;;;;;4970751;28;21055;-72
2023/03/26 12:10:26;;;;;;;5.28;1.98;;;12.60;99.90;;;;;;4971015;28;20193;-74
2023/03/26 12:13:00;;;;;;;6.43;2.80;;;12.60;99.90;;;;;;4962426;28;20207;-73
2023/03/26 12:15:29;;;;;;;6.90;3.53;;;12.80;99.90;;;;;;4949379;28;20236;-75
2023/03/26 12:17:57;;;;;;;8.52;2.50;;;12.90;99.90;;;;;;4950760;28;20199;-74
2023/03/26 12:20:28;;;;;;;4.25;2.35;;;13.00;99.90;;;;;;4950546;28;20211;-75
2023/03/26 12:22:58;;;;;;;6.38;2.80;;;12.80;99.90;;;;;;4963626;28;20215;-74
2023/03/26 12:25:26;;;;;;;7.97;2.40;;;12.80;99.90;;;;;;4949190;28;20634;-75
2023/03/26 12:28:01;;;;;;;5.38;2.78;;;12.80;99.90;;;;;;4970056;28;20234;-74
2023/03/26 12:30:38;;;;;;;7.35;2.10;;;12.90;99.90;;;;;;4974899;28;20871;-74
2023/03/26 12:33:13;;;;;;;4.72;2.10;;;13.00;99.90;;;;;;4961544;28;20206;-74
2023/03/26 12:35:39;;;;;;;10.93;5.50;;;13.30;99.90;;;;;;4950020;28;20683;-75
2023/03/26 12:38:31;;;;;;;5.57;2.50;;;13.50;99.90;;;;;;4951626;28;20333;-74
2023/03/26 12:41:12;;;;;;;4.25;2.20;;;13.60;99.90;;;;;;4951228;28;20571;-73
2023/03/26 12:43:38;;;;;;;2.95;1.70;;;13.50;99.90;;;;;;4947603;28;20178;-75
2023/03/26 12:46:29;;;;;;;7.18;2.03;;;13.40;99.90;;;;;;4948613;28;20265;-75
2023/03/26 12:48:58;;;;;;;8.65;2.40;;;13.30;99.90;;;;;;4946466;28;20195;-74
2023/03/26 12:51:39;;;;;;;6.57;2.35;;;13.20;99.90;;;;;;4949225;28;20206;-75
2023/03/26 12:54:27;;;;;;;3.90;2.10;;;13.10;99.90;;;;;;4951174;28;20249;-74
2023/03/26 12:57:15;;;;;;;6.85;1.95;;;13.00;99.90;;;;;;4950984;28;20579;-74
2023/03/26 13:00:07;;;;;;;9.00;2.65;;;12.90;99.90;;;;;;4948539;28;20238;-75
2023/03/26 13:02:42;;;;;;;5.32;1.90;;;13.10;99.90;;;;;;4949805;28;20203;-75
2023/03/26 13:05:26;;;;;;;4.85;1.63;;;13.00;99.90;;;;;;4950403;28;20595;-75
2023/03/26 13:08:14;;;;;;;9.07;2.88;;;13.00;99.90;;;;;;4945806;28;20226;-74
2023/03/26 13:10:49;;;;;;;3.65;1.35;;;13.00;99.90;;;;;;4949558;28;20202;-76
2023/03/26 13:13:39;;;;;;;6.03;1.88;;;12.90;99.90;;;;;;4954613;28;20190;-76
2023/03/26 13:16:37;;;;;;;3.85;1.50;;;12.90;99.90;;;;;;4952214;28;20223;-75
2023/03/26 13:19:20;;;;;;;2.97;1.57;;;12.80;99.90;;;;;;4959461;28;20293;-74
2023/03/26 13:22:03;;;;;;;6.68;1.48;;;13.00;99.90;;;;;;4950932;28;20218;-74
2023/03/26 13:24:42;;;;;;;3.85;1.55;;;12.80;99.90;;;;;;4953747;28;20215;-73
2023/03/26 13:27:41;;;;;;;2.17;1.10;;;12.90;99.90;;;;;;4951223;28;20292;-74